<?xml version="1.0" encoding="UTF-8"?>
<gpx xmlns="http://www.topografix.com/GPX/1/1" xmlns:xsi="http://www.w3.org/2001/XMLSchema-instance" version="1.1" xsi:schemaLocation="http://www.topografix.com/GPX/1/1 http://www.topografix.com/GPX/1/1/gpx.xsd">
  <metadata>
    <name>Smithfield Sprint Triathlon 2022</name>
  </metadata>
  <trk>
    <name>Smithfield Sprint Triathlon 2022</name>
    <trkseg>
      <trkpt lat="36.983189" lon="-76.639844">
        <ele>8.104026</ele>
        <time>2024-04-06T10:06:00.000Z</time>
      </trkpt>
      <trkpt lat="36.983196" lon="-76.639843">
        <ele>8.104021</ele>
        <time>2024-04-06T10:06:00.000Z</time>
      </trkpt>
      <trkpt lat="36.983454" lon="-76.640118">
        <ele>8.104022</ele>
        <time>2024-04-06T10:06:04.000Z</time>
      </trkpt>
      <trkpt lat="36.984328" lon="-76.640873">
        <ele>8.051912</ele>
        <time>2024-04-06T10:06:16.000Z</time>
      </trkpt>
      <trkpt lat="36.985476" lon="-76.641788">
        <ele>7.907871</ele>
        <time>2024-04-06T10:06:31.000Z</time>
      </trkpt>
      <trkpt lat="36.985761" lon="-76.642092">
        <ele>7.847542</ele>
        <time>2024-04-06T10:06:35.000Z</time>
      </trkpt>
      <trkpt lat="36.98608" lon="-76.64257">
        <ele>7.764439</ele>
        <time>2024-04-06T10:06:41.000Z</time>
      </trkpt>
      <trkpt lat="36.986411" lon="-76.643494">
        <ele>7.63404</ele>
        <time>2024-04-06T10:06:50.000Z</time>
      </trkpt>
      <trkpt lat="36.986624" lon="-76.644281">
        <ele>7.186343</ele>
        <time>2024-04-06T10:06:57.000Z</time>
      </trkpt>
      <trkpt lat="36.987171" lon="-76.646303">
        <ele>5.610964</ele>
        <time>2024-04-06T10:07:16.000Z</time>
      </trkpt>
      <trkpt lat="36.987255" lon="-76.64652">
        <ele>5.35137</ele>
        <time>2024-04-06T10:07:18.000Z</time>
      </trkpt>
      <trkpt lat="36.987378" lon="-76.646841">
        <ele>4.962963</ele>
        <time>2024-04-06T10:07:21.000Z</time>
      </trkpt>
      <trkpt lat="36.98766" lon="-76.647356">
        <ele>4.283278</ele>
        <time>2024-04-06T10:07:27.000Z</time>
      </trkpt>
      <trkpt lat="36.988037" lon="-76.647873">
        <ele>3.755639</ele>
        <time>2024-04-06T10:07:33.000Z</time>
      </trkpt>
      <trkpt lat="36.988331" lon="-76.648253">
        <ele>3.578788</ele>
        <time>2024-04-06T10:07:38.000Z</time>
      </trkpt>
      <trkpt lat="36.988748" lon="-76.648747">
        <ele>3.333571</ele>
        <time>2024-04-06T10:07:44.000Z</time>
      </trkpt>
      <trkpt lat="36.989319" lon="-76.649169">
        <ele>3.276609</ele>
        <time>2024-04-06T10:07:51.000Z</time>
      </trkpt>
      <trkpt lat="36.98993" lon="-76.64964">
        <ele>4.319579</ele>
        <time>2024-04-06T10:07:59.000Z</time>
      </trkpt>
      <trkpt lat="36.990593" lon="-76.65028">
        <ele>5.565907</ele>
        <time>2024-04-06T10:08:08.000Z</time>
      </trkpt>
      <trkpt lat="36.991441" lon="-76.651173">
        <ele>7.038714</ele>
        <time>2024-04-06T10:08:20.000Z</time>
      </trkpt>
      <trkpt lat="36.992025" lon="-76.6518">
        <ele>8.065378</ele>
        <time>2024-04-06T10:08:29.000Z</time>
      </trkpt>
      <trkpt lat="36.992325" lon="-76.652464">
        <ele>8.878442</ele>
        <time>2024-04-06T10:08:36.000Z</time>
      </trkpt>
      <trkpt lat="36.992758" lon="-76.654188">
        <ele>10.753868</ele>
        <time>2024-04-06T10:08:52.000Z</time>
      </trkpt>
      <trkpt lat="36.993052" lon="-76.655492">
        <ele>11.645596</ele>
        <time>2024-04-06T10:09:04.000Z</time>
      </trkpt>
      <trkpt lat="36.993102" lon="-76.655704">
        <ele>11.783413</ele>
        <time>2024-04-06T10:09:06.000Z</time>
      </trkpt>
      <trkpt lat="36.993382" lon="-76.656549">
        <ele>12.15158</ele>
        <time>2024-04-06T10:09:14.000Z</time>
      </trkpt>
      <trkpt lat="36.993683" lon="-76.657263">
        <ele>12.310431</ele>
        <time>2024-04-06T10:09:21.000Z</time>
      </trkpt>
      <trkpt lat="36.993872" lon="-76.657634">
        <ele>12.398589</ele>
        <time>2024-04-06T10:09:25.000Z</time>
      </trkpt>
      <trkpt lat="36.994186" lon="-76.657978">
        <ele>12.501009</ele>
        <time>2024-04-06T10:09:30.000Z</time>
      </trkpt>
      <trkpt lat="36.994466" lon="-76.658131">
        <ele>12.729441</ele>
        <time>2024-04-06T10:09:33.000Z</time>
      </trkpt>
      <trkpt lat="36.994747" lon="-76.658227">
        <ele>12.951442</ele>
        <time>2024-04-06T10:09:36.000Z</time>
      </trkpt>
      <trkpt lat="36.995558" lon="-76.658536">
        <ele>13.605238</ele>
        <time>2024-04-06T10:09:45.000Z</time>
      </trkpt>
      <trkpt lat="36.995843" lon="-76.658759">
        <ele>13.861144</ele>
        <time>2024-04-06T10:09:49.000Z</time>
      </trkpt>
      <trkpt lat="36.996054" lon="-76.659024">
        <ele>14.037786</ele>
        <time>2024-04-06T10:09:52.000Z</time>
      </trkpt>
      <trkpt lat="36.996216" lon="-76.659281">
        <ele>14.184286</ele>
        <time>2024-04-06T10:09:55.000Z</time>
      </trkpt>
      <trkpt lat="36.996354" lon="-76.659685">
        <ele>14.386778</ele>
        <time>2024-04-06T10:09:59.000Z</time>
      </trkpt>
      <trkpt lat="36.996383" lon="-76.659827">
        <ele>14.447435</ele>
        <time>2024-04-06T10:10:00.000Z</time>
      </trkpt>
      <trkpt lat="36.996502" lon="-76.66038">
        <ele>14.716382</ele>
        <time>2024-04-06T10:10:05.000Z</time>
      </trkpt>
      <trkpt lat="36.996669" lon="-76.661065">
        <ele>15.018213</ele>
        <time>2024-04-06T10:10:11.000Z</time>
      </trkpt>
      <trkpt lat="36.996815" lon="-76.661725">
        <ele>15.280294</ele>
        <time>2024-04-06T10:10:17.000Z</time>
      </trkpt>
      <trkpt lat="36.996988" lon="-76.662521">
        <ele>15.586791</ele>
        <time>2024-04-06T10:10:24.000Z</time>
      </trkpt>
      <trkpt lat="36.997153" lon="-76.663269">
        <ele>15.785923</ele>
        <time>2024-04-06T10:10:31.000Z</time>
      </trkpt>
      <trkpt lat="36.997399" lon="-76.664342">
        <ele>15.886011</ele>
        <time>2024-04-06T10:10:41.000Z</time>
      </trkpt>
      <trkpt lat="36.997642" lon="-76.665419">
        <ele>15.928569</ele>
        <time>2024-04-06T10:10:51.000Z</time>
      </trkpt>
      <trkpt lat="36.997844" lon="-76.666414">
        <ele>15.838973</ele>
        <time>2024-04-06T10:11:00.000Z</time>
      </trkpt>
      <trkpt lat="36.997948" lon="-76.66697">
        <ele>15.789132</ele>
        <time>2024-04-06T10:11:05.000Z</time>
      </trkpt>
      <trkpt lat="36.998023" lon="-76.667369">
        <ele>15.831617</ele>
        <time>2024-04-06T10:11:09.000Z</time>
      </trkpt>
      <trkpt lat="36.998097" lon="-76.667778">
        <ele>16.235497</ele>
        <time>2024-04-06T10:11:13.000Z</time>
      </trkpt>
      <trkpt lat="36.998193" lon="-76.668269">
        <ele>16.714907</ele>
        <time>2024-04-06T10:11:17.000Z</time>
      </trkpt>
      <trkpt lat="36.998381" lon="-76.669333">
        <ele>17.757243</ele>
        <time>2024-04-06T10:11:27.000Z</time>
      </trkpt>
      <trkpt lat="36.998491" lon="-76.669892">
        <ele>18.198106</ele>
        <time>2024-04-06T10:11:32.000Z</time>
      </trkpt>
      <trkpt lat="36.998566" lon="-76.670266">
        <ele>18.470053</ele>
        <time>2024-04-06T10:11:35.000Z</time>
      </trkpt>
      <trkpt lat="36.998702" lon="-76.670559">
        <ele>18.696057</ele>
        <time>2024-04-06T10:11:38.000Z</time>
      </trkpt>
      <trkpt lat="36.999471" lon="-76.670515">
        <ele>19.361621</ele>
        <time>2024-04-06T10:11:47.000Z</time>
      </trkpt>
      <trkpt lat="37.000417" lon="-76.670572">
        <ele>18.954418</ele>
        <time>2024-04-06T10:11:58.000Z</time>
      </trkpt>
      <trkpt lat="37.000502" lon="-76.670599">
        <ele>18.904601</ele>
        <time>2024-04-06T10:11:59.000Z</time>
      </trkpt>
      <trkpt lat="37.00236" lon="-76.671421">
        <ele>16.569136</ele>
        <time>2024-04-06T10:12:21.000Z</time>
      </trkpt>
      <trkpt lat="37.002516" lon="-76.671469">
        <ele>16.296091</ele>
        <time>2024-04-06T10:12:23.000Z</time>
      </trkpt>
      <trkpt lat="37.002744" lon="-76.671555">
        <ele>15.900304</ele>
        <time>2024-04-06T10:12:26.000Z</time>
      </trkpt>
      <trkpt lat="37.004916" lon="-76.672453">
        <ele>11.079539</ele>
        <time>2024-04-06T10:12:51.000Z</time>
      </trkpt>
      <trkpt lat="37.005961" lon="-76.67254">
        <ele>10.655294</ele>
        <time>2024-04-06T10:13:03.000Z</time>
      </trkpt>
      <trkpt lat="37.006834" lon="-76.672715">
        <ele>10.857204</ele>
        <time>2024-04-06T10:13:13.000Z</time>
      </trkpt>
      <trkpt lat="37.008872" lon="-76.672756">
        <ele>13.641213</ele>
        <time>2024-04-06T10:13:36.000Z</time>
      </trkpt>
      <trkpt lat="37.009968" lon="-76.672773">
        <ele>15.079265</ele>
        <time>2024-04-06T10:13:48.000Z</time>
      </trkpt>
      <trkpt lat="37.010333" lon="-76.672764">
        <ele>15.4083</ele>
        <time>2024-04-06T10:13:52.000Z</time>
      </trkpt>
      <trkpt lat="37.01055" lon="-76.67278">
        <ele>15.563648</ele>
        <time>2024-04-06T10:13:54.000Z</time>
      </trkpt>
      <trkpt lat="37.010828" lon="-76.672791">
        <ele>15.746578</ele>
        <time>2024-04-06T10:13:57.000Z</time>
      </trkpt>
      <trkpt lat="37.011222" lon="-76.672849">
        <ele>16.015701</ele>
        <time>2024-04-06T10:14:01.000Z</time>
      </trkpt>
      <trkpt lat="37.012537" lon="-76.673656">
        <ele>16.632619</ele>
        <time>2024-04-06T10:14:17.000Z</time>
      </trkpt>
      <trkpt lat="37.012776" lon="-76.673737">
        <ele>16.684593</ele>
        <time>2024-04-06T10:14:20.000Z</time>
      </trkpt>
      <trkpt lat="37.013331" lon="-76.673709">
        <ele>16.796098</ele>
        <time>2024-04-06T10:14:26.000Z</time>
      </trkpt>
      <trkpt lat="37.014323" lon="-76.673485">
        <ele>16.559903</ele>
        <time>2024-04-06T10:14:37.000Z</time>
      </trkpt>
      <trkpt lat="37.016623" lon="-76.67296">
        <ele>15.147948</ele>
        <time>2024-04-06T10:15:03.000Z</time>
      </trkpt>
      <trkpt lat="37.01804" lon="-76.672639">
        <ele>13.227502</ele>
        <time>2024-04-06T10:15:19.000Z</time>
      </trkpt>
      <trkpt lat="37.020203" lon="-76.672149">
        <ele>8.884848</ele>
        <time>2024-04-06T10:15:43.000Z</time>
      </trkpt>
      <trkpt lat="37.021347" lon="-76.671977">
        <ele>6.422508</ele>
        <time>2024-04-06T10:15:56.000Z</time>
      </trkpt>
      <trkpt lat="37.021529" lon="-76.671866">
        <ele>5.9683</ele>
        <time>2024-04-06T10:15:58.000Z</time>
      </trkpt>
      <trkpt lat="37.02194" lon="-76.671444">
        <ele>4.841854</ele>
        <time>2024-04-06T10:16:04.000Z</time>
      </trkpt>
      <trkpt lat="37.022197" lon="-76.671362">
        <ele>4.263562</ele>
        <time>2024-04-06T10:16:07.000Z</time>
      </trkpt>
      <trkpt lat="37.022533" lon="-76.671377">
        <ele>4.234296</ele>
        <time>2024-04-06T10:16:11.000Z</time>
      </trkpt>
      <trkpt lat="37.022978" lon="-76.671579">
        <ele>4.425359</ele>
        <time>2024-04-06T10:16:16.000Z</time>
      </trkpt>
      <trkpt lat="37.022431" lon="-76.671694">
        <ele>4.651445</ele>
        <time>2024-04-06T10:16:22.000Z</time>
      </trkpt>
      <trkpt lat="37.022422" lon="-76.671711">
        <ele>4.656299</ele>
        <time>2024-04-06T10:16:22.000Z</time>
      </trkpt>
      <trkpt lat="37.022257" lon="-76.671832">
        <ele>4.732348</ele>
        <time>2024-04-06T10:16:24.000Z</time>
      </trkpt>
      <trkpt lat="37.02219" lon="-76.671984">
        <ele>4.790541</ele>
        <time>2024-04-06T10:16:26.000Z</time>
      </trkpt>
      <trkpt lat="37.021866" lon="-76.676201">
        <ele>10.762135</ele>
        <time>2024-04-06T10:17:04.000Z</time>
      </trkpt>
      <trkpt lat="37.021746" lon="-76.677556">
        <ele>12.342007</ele>
        <time>2024-04-06T10:17:16.000Z</time>
      </trkpt>
      <trkpt lat="37.02165" lon="-76.678672">
        <ele>13.490402</ele>
        <time>2024-04-06T10:17:26.000Z</time>
      </trkpt>
      <trkpt lat="37.021527" lon="-76.680093">
        <ele>15.036027</ele>
        <time>2024-04-06T10:17:39.000Z</time>
      </trkpt>
      <trkpt lat="37.021525" lon="-76.680331">
        <ele>15.307564</ele>
        <time>2024-04-06T10:17:41.000Z</time>
      </trkpt>
      <trkpt lat="37.021448" lon="-76.680659">
        <ele>15.676588</ele>
        <time>2024-04-06T10:17:44.000Z</time>
      </trkpt>
      <trkpt lat="37.021363" lon="-76.680909">
        <ele>15.98358</ele>
        <time>2024-04-06T10:17:46.000Z</time>
      </trkpt>
      <trkpt lat="37.021228" lon="-76.681129">
        <ele>16.293777</ele>
        <time>2024-04-06T10:17:48.000Z</time>
      </trkpt>
      <trkpt lat="37.020574" lon="-76.682199">
        <ele>17.913858</ele>
        <time>2024-04-06T10:18:00.000Z</time>
      </trkpt>
      <trkpt lat="37.020523" lon="-76.682309">
        <ele>18.064558</ele>
        <time>2024-04-06T10:18:01.000Z</time>
      </trkpt>
      <trkpt lat="37.020168" lon="-76.683071">
        <ele>19.106093</ele>
        <time>2024-04-06T10:18:09.000Z</time>
      </trkpt>
      <trkpt lat="37.019951" lon="-76.683353">
        <ele>19.504065</ele>
        <time>2024-04-06T10:18:12.000Z</time>
      </trkpt>
      <trkpt lat="37.018596" lon="-76.68452">
        <ele>21.414016</ele>
        <time>2024-04-06T10:18:30.000Z</time>
      </trkpt>
      <trkpt lat="37.018244" lon="-76.684684">
        <ele>21.693545</ele>
        <time>2024-04-06T10:18:34.000Z</time>
      </trkpt>
      <trkpt lat="37.017948" lon="-76.684716">
        <ele>21.918722</ele>
        <time>2024-04-06T10:18:37.000Z</time>
      </trkpt>
      <trkpt lat="37.01752" lon="-76.684706">
        <ele>22.229833</ele>
        <time>2024-04-06T10:18:42.000Z</time>
      </trkpt>
      <trkpt lat="37.017211" lon="-76.684701">
        <ele>22.45751</ele>
        <time>2024-04-06T10:18:45.000Z</time>
      </trkpt>
      <trkpt lat="37.017003" lon="-76.684769">
        <ele>22.585511</ele>
        <time>2024-04-06T10:18:47.000Z</time>
      </trkpt>
      <trkpt lat="37.016833" lon="-76.684945">
        <ele>22.696623</ele>
        <time>2024-04-06T10:18:49.000Z</time>
      </trkpt>
      <trkpt lat="37.015691" lon="-76.686642">
        <ele>23.560065</ele>
        <time>2024-04-06T10:19:09.000Z</time>
      </trkpt>
      <trkpt lat="37.01564" lon="-76.686904">
        <ele>23.644779</ele>
        <time>2024-04-06T10:19:11.000Z</time>
      </trkpt>
      <trkpt lat="37.015824" lon="-76.688065">
        <ele>24.012445</ele>
        <time>2024-04-06T10:19:22.000Z</time>
      </trkpt>
      <trkpt lat="37.01578" lon="-76.688718">
        <ele>24.160783</ele>
        <time>2024-04-06T10:19:28.000Z</time>
      </trkpt>
      <trkpt lat="37.015579" lon="-76.689051">
        <ele>24.182793</ele>
        <time>2024-04-06T10:19:32.000Z</time>
      </trkpt>
      <trkpt lat="37.014963" lon="-76.689654">
        <ele>24.23695</ele>
        <time>2024-04-06T10:19:41.000Z</time>
      </trkpt>
      <trkpt lat="37.014813" lon="-76.689858">
        <ele>24.252395</ele>
        <time>2024-04-06T10:19:43.000Z</time>
      </trkpt>
      <trkpt lat="37.014701" lon="-76.690088">
        <ele>24.267828</ele>
        <time>2024-04-06T10:19:45.000Z</time>
      </trkpt>
      <trkpt lat="37.014474" lon="-76.691161">
        <ele>24.187268</ele>
        <time>2024-04-06T10:19:55.000Z</time>
      </trkpt>
      <trkpt lat="37.014446" lon="-76.69135">
        <ele>24.171397</ele>
        <time>2024-04-06T10:19:57.000Z</time>
      </trkpt>
      <trkpt lat="37.014353" lon="-76.69179">
        <ele>24.134768</ele>
        <time>2024-04-06T10:20:01.000Z</time>
      </trkpt>
      <trkpt lat="37.01435" lon="-76.692128">
        <ele>24.106597</ele>
        <time>2024-04-06T10:20:04.000Z</time>
      </trkpt>
      <trkpt lat="37.0145" lon="-76.693659">
        <ele>24.037109</ele>
        <time>2024-04-06T10:20:18.000Z</time>
      </trkpt>
      <trkpt lat="37.014589" lon="-76.694599">
        <ele>24.000394</ele>
        <time>2024-04-06T10:20:26.000Z</time>
      </trkpt>
      <trkpt lat="37.014558" lon="-76.695304">
        <ele>23.993345</ele>
        <time>2024-04-06T10:20:32.000Z</time>
      </trkpt>
      <trkpt lat="37.014494" lon="-76.695716">
        <ele>23.989109</ele>
        <time>2024-04-06T10:20:36.000Z</time>
      </trkpt>
      <trkpt lat="37.014401" lon="-76.695995">
        <ele>23.985948</ele>
        <time>2024-04-06T10:20:39.000Z</time>
      </trkpt>
      <trkpt lat="37.01411" lon="-76.696383">
        <ele>23.980433</ele>
        <time>2024-04-06T10:20:44.000Z</time>
      </trkpt>
      <trkpt lat="37.013744" lon="-76.696604">
        <ele>23.953863</ele>
        <time>2024-04-06T10:20:49.000Z</time>
      </trkpt>
      <trkpt lat="37.011341" lon="-76.697636">
        <ele>23.601222</ele>
        <time>2024-04-06T10:21:17.000Z</time>
      </trkpt>
      <trkpt lat="37.010127" lon="-76.69792">
        <ele>23.445959</ele>
        <time>2024-04-06T10:21:31.000Z</time>
      </trkpt>
      <trkpt lat="37.008935" lon="-76.698335">
        <ele>23.380736</ele>
        <time>2024-04-06T10:21:45.000Z</time>
      </trkpt>
      <trkpt lat="37.00844" lon="-76.698133">
        <ele>23.417134</ele>
        <time>2024-04-06T10:21:51.000Z</time>
      </trkpt>
      <trkpt lat="37.00771" lon="-76.697869">
        <ele>23.530811</ele>
        <time>2024-04-06T10:21:59.000Z</time>
      </trkpt>
      <trkpt lat="37.007187" lon="-76.697622">
        <ele>23.613191</ele>
        <time>2024-04-06T10:22:05.000Z</time>
      </trkpt>
      <trkpt lat="37.006813" lon="-76.697172">
        <ele>23.687422</ele>
        <time>2024-04-06T10:22:11.000Z</time>
      </trkpt>
      <trkpt lat="37.006472" lon="-76.696179">
        <ele>23.810198</ele>
        <time>2024-04-06T10:22:21.000Z</time>
      </trkpt>
      <trkpt lat="37.006077" lon="-76.695044">
        <ele>23.913273</ele>
        <time>2024-04-06T10:22:32.000Z</time>
      </trkpt>
      <trkpt lat="37.005838" lon="-76.694376">
        <ele>23.941438</ele>
        <time>2024-04-06T10:22:38.000Z</time>
      </trkpt>
      <trkpt lat="37.005613" lon="-76.693885">
        <ele>23.963784</ele>
        <time>2024-04-06T10:22:43.000Z</time>
      </trkpt>
      <trkpt lat="37.005083" lon="-76.692929">
        <ele>23.923312</ele>
        <time>2024-04-06T10:22:53.000Z</time>
      </trkpt>
      <trkpt lat="37.004996" lon="-76.69277">
        <ele>23.908542</ele>
        <time>2024-04-06T10:22:55.000Z</time>
      </trkpt>
      <trkpt lat="37.004732" lon="-76.692268">
        <ele>23.861946</ele>
        <time>2024-04-06T10:23:00.000Z</time>
      </trkpt>
      <trkpt lat="37.004567" lon="-76.691929">
        <ele>23.830998</ele>
        <time>2024-04-06T10:23:04.000Z</time>
      </trkpt>
      <trkpt lat="37.004303" lon="-76.691344">
        <ele>23.631768</ele>
        <time>2024-04-06T10:23:10.000Z</time>
      </trkpt>
      <trkpt lat="37.004295" lon="-76.691296">
        <ele>23.598879</ele>
        <time>2024-04-06T10:23:10.000Z</time>
      </trkpt>
      <trkpt lat="37.003855" lon="-76.690253">
        <ele>22.984056</ele>
        <time>2024-04-06T10:23:20.000Z</time>
      </trkpt>
      <trkpt lat="37.003713" lon="-76.689375">
        <ele>22.430557</ele>
        <time>2024-04-06T10:23:28.000Z</time>
      </trkpt>
      <trkpt lat="37.003692" lon="-76.687924">
        <ele>21.026007</ele>
        <time>2024-04-06T10:23:41.000Z</time>
      </trkpt>
      <trkpt lat="37.003624" lon="-76.68722">
        <ele>20.411378</ele>
        <time>2024-04-06T10:23:47.000Z</time>
      </trkpt>
      <trkpt lat="37.003502" lon="-76.686477">
        <ele>20.079983</ele>
        <time>2024-04-06T10:23:54.000Z</time>
      </trkpt>
      <trkpt lat="37.003426" lon="-76.686193">
        <ele>19.946439</ele>
        <time>2024-04-06T10:23:57.000Z</time>
      </trkpt>
      <trkpt lat="37.003201" lon="-76.685206">
        <ele>19.503607</ele>
        <time>2024-04-06T10:24:06.000Z</time>
      </trkpt>
      <trkpt lat="37.003133" lon="-76.684635">
        <ele>19.482641</ele>
        <time>2024-04-06T10:24:11.000Z</time>
      </trkpt>
      <trkpt lat="37.003136" lon="-76.684585">
        <ele>19.483567</ele>
        <time>2024-04-06T10:24:11.000Z</time>
      </trkpt>
      <trkpt lat="37.003125" lon="-76.684147">
        <ele>19.491075</ele>
        <time>2024-04-06T10:24:15.000Z</time>
      </trkpt>
      <trkpt lat="37.003118" lon="-76.6834">
        <ele>19.503632</ele>
        <time>2024-04-06T10:24:22.000Z</time>
      </trkpt>
      <trkpt lat="37.003113" lon="-76.6833">
        <ele>19.505445</ele>
        <time>2024-04-06T10:24:23.000Z</time>
      </trkpt>
      <trkpt lat="37.003013" lon="-76.682485">
        <ele>19.590371</ele>
        <time>2024-04-06T10:24:30.000Z</time>
      </trkpt>
      <trkpt lat="37.002485" lon="-76.680805">
        <ele>19.919872</ele>
        <time>2024-04-06T10:24:46.000Z</time>
      </trkpt>
      <trkpt lat="37.001757" lon="-76.678542">
        <ele>20.527563</ele>
        <time>2024-04-06T10:25:08.000Z</time>
      </trkpt>
      <trkpt lat="37.001712" lon="-76.678433">
        <ele>20.542312</ele>
        <time>2024-04-06T10:25:09.000Z</time>
      </trkpt>
      <trkpt lat="37.000266" lon="-76.674425">
        <ele>20.646136</ele>
        <time>2024-04-06T10:25:48.000Z</time>
      </trkpt>
      <trkpt lat="36.999724" lon="-76.672966">
        <ele>19.535351</ele>
        <time>2024-04-06T10:26:02.000Z</time>
      </trkpt>
      <trkpt lat="36.999392" lon="-76.6721">
        <ele>18.999095</ele>
        <time>2024-04-06T10:26:11.000Z</time>
      </trkpt>
      <trkpt lat="36.998689" lon="-76.670571">
        <ele>18.229159</ele>
        <time>2024-04-06T10:26:27.000Z</time>
      </trkpt>
      <trkpt lat="36.998576" lon="-76.670273">
        <ele>17.989838</ele>
        <time>2024-04-06T10:26:30.000Z</time>
      </trkpt>
      <trkpt lat="36.998481" lon="-76.669881">
        <ele>17.701855</ele>
        <time>2024-04-06T10:26:34.000Z</time>
      </trkpt>
      <trkpt lat="36.99838" lon="-76.669336">
        <ele>17.28236</ele>
        <time>2024-04-06T10:26:39.000Z</time>
      </trkpt>
      <trkpt lat="36.998189" lon="-76.668259">
        <ele>16.539626</ele>
        <time>2024-04-06T10:26:49.000Z</time>
      </trkpt>
      <trkpt lat="36.998103" lon="-76.66777">
        <ele>16.32803</ele>
        <time>2024-04-06T10:26:53.000Z</time>
      </trkpt>
      <trkpt lat="36.998028" lon="-76.667372">
        <ele>16.149782</ele>
        <time>2024-04-06T10:26:57.000Z</time>
      </trkpt>
      <trkpt lat="36.997949" lon="-76.666981">
        <ele>15.981939</ele>
        <time>2024-04-06T10:27:01.000Z</time>
      </trkpt>
      <trkpt lat="36.99784" lon="-76.666411">
        <ele>15.73969</ele>
        <time>2024-04-06T10:27:06.000Z</time>
      </trkpt>
      <trkpt lat="36.997633" lon="-76.665426">
        <ele>15.796237</ele>
        <time>2024-04-06T10:27:15.000Z</time>
      </trkpt>
      <trkpt lat="36.997391" lon="-76.664354">
        <ele>15.983978</ele>
        <time>2024-04-06T10:27:25.000Z</time>
      </trkpt>
      <trkpt lat="36.997149" lon="-76.663265">
        <ele>15.785879</ele>
        <time>2024-04-06T10:27:35.000Z</time>
      </trkpt>
      <trkpt lat="36.996988" lon="-76.66252">
        <ele>15.545473</ele>
        <time>2024-04-06T10:27:42.000Z</time>
      </trkpt>
      <trkpt lat="36.996803" lon="-76.661739">
        <ele>15.287534</ele>
        <time>2024-04-06T10:27:49.000Z</time>
      </trkpt>
      <trkpt lat="36.996673" lon="-76.661062">
        <ele>15.030362</ele>
        <time>2024-04-06T10:27:55.000Z</time>
      </trkpt>
      <trkpt lat="36.996502" lon="-76.660389">
        <ele>14.765601</ele>
        <time>2024-04-06T10:28:01.000Z</time>
      </trkpt>
      <trkpt lat="36.996382" lon="-76.659813">
        <ele>14.547199</ele>
        <time>2024-04-06T10:28:06.000Z</time>
      </trkpt>
      <trkpt lat="36.996343" lon="-76.659682">
        <ele>14.490498</ele>
        <time>2024-04-06T10:28:07.000Z</time>
      </trkpt>
      <trkpt lat="36.996212" lon="-76.659289">
        <ele>14.212946</ele>
        <time>2024-04-06T10:28:11.000Z</time>
      </trkpt>
      <trkpt lat="36.99606" lon="-76.659021">
        <ele>14.012146</ele>
        <time>2024-04-06T10:28:14.000Z</time>
      </trkpt>
      <trkpt lat="36.995838" lon="-76.658759">
        <ele>13.773375</ele>
        <time>2024-04-06T10:28:17.000Z</time>
      </trkpt>
      <trkpt lat="36.995561" lon="-76.658543">
        <ele>13.509927</ele>
        <time>2024-04-06T10:28:21.000Z</time>
      </trkpt>
      <trkpt lat="36.994746" lon="-76.658225">
        <ele>12.938263</ele>
        <time>2024-04-06T10:28:30.000Z</time>
      </trkpt>
      <trkpt lat="36.99445" lon="-76.658135">
        <ele>12.799405</ele>
        <time>2024-04-06T10:28:33.000Z</time>
      </trkpt>
      <trkpt lat="36.994191" lon="-76.657978">
        <ele>12.656517</ele>
        <time>2024-04-06T10:28:36.000Z</time>
      </trkpt>
      <trkpt lat="36.993871" lon="-76.657638">
        <ele>12.460609</ele>
        <time>2024-04-06T10:28:41.000Z</time>
      </trkpt>
      <trkpt lat="36.993677" lon="-76.657263">
        <ele>12.288547</ele>
        <time>2024-04-06T10:28:45.000Z</time>
      </trkpt>
      <trkpt lat="36.993384" lon="-76.656541">
        <ele>12.04357</ele>
        <time>2024-04-06T10:28:52.000Z</time>
      </trkpt>
      <trkpt lat="36.993101" lon="-76.655699">
        <ele>11.786799</ele>
        <time>2024-04-06T10:29:00.000Z</time>
      </trkpt>
      <trkpt lat="36.993057" lon="-76.655501">
        <ele>11.726471</ele>
        <time>2024-04-06T10:29:02.000Z</time>
      </trkpt>
      <trkpt lat="36.99275" lon="-76.654181">
        <ele>10.681555</ele>
        <time>2024-04-06T10:29:14.000Z</time>
      </trkpt>
      <trkpt lat="36.992323" lon="-76.652449">
        <ele>8.862695</ele>
        <time>2024-04-06T10:29:30.000Z</time>
      </trkpt>
      <trkpt lat="36.992031" lon="-76.651803">
        <ele>8.12734</ele>
        <time>2024-04-06T10:29:37.000Z</time>
      </trkpt>
      <trkpt lat="36.991434" lon="-76.651169">
        <ele>7.156413</ele>
        <time>2024-04-06T10:29:46.000Z</time>
      </trkpt>
      <trkpt lat="36.99058" lon="-76.650271">
        <ele>5.459772</ele>
        <time>2024-04-06T10:29:58.000Z</time>
      </trkpt>
      <trkpt lat="36.989922" lon="-76.649635">
        <ele>4.241703</ele>
        <time>2024-04-06T10:30:07.000Z</time>
      </trkpt>
      <trkpt lat="36.989332" lon="-76.649174">
        <ele>3.696282</ele>
        <time>2024-04-06T10:30:15.000Z</time>
      </trkpt>
      <trkpt lat="36.988754" lon="-76.648744">
        <ele>3.173877</ele>
        <time>2024-04-06T10:30:22.000Z</time>
      </trkpt>
      <trkpt lat="36.98834" lon="-76.648251">
        <ele>3.240146</ele>
        <time>2024-04-06T10:30:28.000Z</time>
      </trkpt>
      <trkpt lat="36.98805" lon="-76.64788">
        <ele>3.762677</ele>
        <time>2024-04-06T10:30:33.000Z</time>
      </trkpt>
      <trkpt lat="36.98767" lon="-76.647349">
        <ele>4.468808</ele>
        <time>2024-04-06T10:30:39.000Z</time>
      </trkpt>
      <trkpt lat="36.98738" lon="-76.646844">
        <ele>5.093084</ele>
        <time>2024-04-06T10:30:45.000Z</time>
      </trkpt>
      <trkpt lat="36.98725" lon="-76.646521">
        <ele>5.407231</ele>
        <time>2024-04-06T10:30:48.000Z</time>
      </trkpt>
      <trkpt lat="36.987179" lon="-76.646315">
        <ele>5.607157</ele>
        <time>2024-04-06T10:30:50.000Z</time>
      </trkpt>
      <trkpt lat="36.986623" lon="-76.644273">
        <ele>7.217453</ele>
        <time>2024-04-06T10:31:09.000Z</time>
      </trkpt>
      <trkpt lat="36.986408" lon="-76.643478">
        <ele>7.500131</ele>
        <time>2024-04-06T10:31:16.000Z</time>
      </trkpt>
      <trkpt lat="36.98609" lon="-76.642572">
        <ele>7.836923</ele>
        <time>2024-04-06T10:31:25.000Z</time>
      </trkpt>
      <trkpt lat="36.985755" lon="-76.642087">
        <ele>7.881162</ele>
        <time>2024-04-06T10:31:31.000Z</time>
      </trkpt>
      <trkpt lat="36.98547" lon="-76.641789">
        <ele>7.908009</ele>
        <time>2024-04-06T10:31:35.000Z</time>
      </trkpt>
      <trkpt lat="36.984334" lon="-76.64089">
        <ele>7.9831401368</ele>
        <time>2024-04-06T10:31:50.000Z</time>
      </trkpt>
      <trkpt lat="36.983465" lon="-76.640116">
        <ele>8.04276123877</ele>
        <time>2024-04-06T10:32:02.000Z</time>
      </trkpt>
      <trkpt lat="36.983194" lon="-76.639858">
        <ele>8.06179432452</ele>
        <time>2024-04-06T10:32:06.000Z</time>
      </trkpt>
      <trkpt lat="36.983193" lon="-76.639847">
        <ele>8.06228871523</ele>
        <time>2024-04-06T10:32:06.000Z</time>
      </trkpt>
    </trkseg>
  </trk>
</gpx>

<!--
Performance optimized by W3 Total Cache. Learn more: https://www.boldgrid.com/w3-total-cache/?utm_source=w3tc&utm_medium=footer_comment&utm_campaign=free_plugin

Page Caching using Disk: Enhanced{w3tc_pagecache_reject_reason} 

Served from: www.aquabike.world @ 2026-05-10 19:07:00 by W3 Total Cache
-->